Time;durP1;ratioP1;P1;durP2;ratioP2;P2;SDS_P1;SDS_P2;PMS_P1;PMS_P2;Temp;Humidity;BMP_temperature;BMP_pressure;BME280_temperature;BME280_humidity;BME280_pressure;Samples;Min_cycle;Max_cycle;Signal;HPM_P1;HPM_P2
2021/12/07 00:01:12;;;;;;;3.00;2.90;;;0.60;99.90;;;;;;5076346;28;20615;-73
2021/12/07 00:03:39;;;;;;;3.55;3.35;;;0.50;99.90;;;;;;5077839;28;20874;-75
2021/12/07 00:06:08;;;;;;;3.75;3.55;;;0.50;99.90;;;;;;5071549;28;20311;-72
2021/12/07 00:08:35;;;;;;;3.40;3.20;;;0.50;99.90;;;;;;5074628;28;20574;-72
2021/12/07 00:11:05;;;;;;;3.72;3.42;;;0.40;99.90;;;;;;5070574;28;20226;-74
2021/12/07 00:13:36;;;;;;;3.70;3.50;;;0.40;99.90;;;;;;5074222;28;20233;-74
2021/12/07 00:16:03;;;;;;;3.50;3.30;;;0.50;99.90;;;;;;5074509;28;20242;-74
2021/12/07 00:18:30;;;;;;;3.60;3.40;;;0.50;99.90;;;;;;5076356;28;20236;-74
2021/12/07 00:20:58;;;;;;;3.45;3.25;;;0.40;99.90;;;;;;5075024;28;20561;-73
2021/12/07 00:23:25;;;;;;;3.60;3.40;;;0.50;99.90;;;;;;5080012;28;20619;-74
2021/12/07 00:25:52;;;;;;;3.22;3.13;;;0.50;99.90;;;;;;5080628;28;20241;-73
2021/12/07 00:28:22;;;;;;;3.58;3.38;;;0.40;99.90;;;;;;5077843;28;20290;-73
2021/12/07 00:30:51;;;;;;;3.50;3.30;;;0.50;99.90;;;;;;5080427;28;20234;-74
2021/12/07 00:33:34;;;;;;;3.45;3.35;;;0.50;99.90;;;;;;5076977;28;20292;-73
2021/12/07 00:36:01;;;;;;;3.45;3.35;;;0.50;99.90;;;;;;5072918;28;20706;-73
2021/12/07 00:38:29;;;;;;;3.60;3.40;;;0.60;99.90;;;;;;5097673;22;20812;-68
2021/12/07 00:40:58;;;;;;;3.78;3.58;;;0.50;99.90;;;;;;5065216;28;20433;-68
2021/12/07 00:43:28;;;;;;;3.47;3.28;;;0.40;99.90;;;;;;5076651;28;20306;-68
2021/12/07 00:45:57;;;;;;;3.22;3.13;;;0.30;99.90;;;;;;5075951;28;20588;-68
2021/12/07 00:48:26;;;;;;;3.95;3.75;;;0.30;99.90;;;;;;5072996;28;20233;-68
2021/12/07 00:50:54;;;;;;;3.70;3.50;;;0.30;99.90;;;;;;5074563;28;20233;-69
2021/12/07 00:53:22;;;;;;;3.33;3.22;;;0.40;99.90;;;;;;5074421;28;20597;-68
2021/12/07 00:55:52;;;;;;;4.00;3.80;;;0.40;99.90;;;;;;5080345;28;20221;-67
2021/12/07 00:58:23;;;;;;;3.00;2.90;;;0.40;99.90;;;;;;5079562;28;20687;-67
2021/12/07 01:00:55;;;;;;;3.30;3.10;;;0.40;99.90;;;;;;5081723;28;20648;-68
2021/12/07 01:03:23;;;;;;;3.50;3.40;;;0.40;99.90;;;;;;5074305;28;20221;-68
2021/12/07 01:05:54;;;;;;;3.17;2.97;;;0.40;99.90;;;;;;5073887;28;20672;-67
2021/12/07 01:08:53;;;;;;;3.60;3.40;;;0.40;99.90;;;;;;5071850;28;20217;-68
2021/12/07 01:25:13;;;;;;;3.25;3.05;;;0.60;99.90;;;;;;5071119;28;20674;-67
2021/12/07 01:27:40;;;;;;;3.42;3.22;;;0.60;99.90;;;;;;5072727;28;20237;-68
2021/12/07 01:30:14;;;;;;;3.70;3.50;;;0.60;99.90;;;;;;5070084;28;20288;-68
2021/12/07 01:33:01;;;;;;;3.42;3.22;;;0.70;99.90;;;;;;5071130;28;20226;-68
2021/12/07 01:35:57;;;;;;;2.42;2.33;;;0.70;99.90;;;;;;5072419;28;20232;-68
2021/12/07 01:38:36;;;;;;;4.18;3.97;;;0.70;99.90;;;;;;5073021;28;20227;-68
2021/12/07 01:41:15;;;;;;;3.55;3.35;;;0.70;99.90;;;;;;5070597;28;20217;-68
2021/12/07 01:44:17;;;;;;;3.30;3.20;;;0.70;99.90;;;;;;5072264;28;20332;-68
2021/12/07 01:46:55;;;;;;;2.97;2.88;;;0.80;99.90;;;;;;5061531;28;20304;-68
2021/12/07 02:00:39;;;;;;;3.90;3.70;;;0.40;99.90;;;;;;5034973;28;20243;-68
2021/12/07 02:03:07;;;;;;;3.70;3.50;;;0.40;99.90;;;;;;5077188;28;20274;-67
2021/12/07 02:05:35;;;;;;;3.63;3.42;;;0.40;99.90;;;;;;5075283;28;20264;-68
2021/12/07 02:08:03;;;;;;;3.95;3.75;;;0.40;99.90;;;;;;5070478;28;20237;-68
2021/12/07 02:10:32;;;;;;;3.75;3.55;;;0.40;99.90;;;;;;5069783;28;20213;-68
2021/12/07 02:13:03;;;;;;;3.67;3.47;;;0.30;99.90;;;;;;5070069;28;20707;-68
2021/12/07 02:15:32;;;;;;;4.30;4.00;;;0.30;99.90;;;;;;5072103;28;20217;-68
2021/12/07 02:17:59;;;;;;;4.15;3.85;;;0.20;99.90;;;;;;5071840;28;20240;-68
2021/12/07 02:20:30;;;;;;;3.80;3.60;;;0.20;99.90;;;;;;5073776;28;20631;-68
2021/12/07 02:22:58;;;;;;;4.05;3.85;;;0.20;99.90;;;;;;5071754;28;20597;-68
2021/12/07 02:25:25;;;;;;;4.13;3.90;;;0.20;99.90;;;;;;5068138;28;20703;-68
2021/12/07 02:27:53;;;;;;;3.65;3.35;;;0.20;99.90;;;;;;5070535;28;20770;-68
2021/12/07 02:30:24;;;;;;;3.95;3.75;;;0.20;99.90;;;;;;5074167;28;20233;-67
2021/12/07 02:32:52;;;;;;;3.58;3.38;;;0.20;99.90;;;;;;5070479;28;20278;-68
2021/12/07 02:35:24;;;;;;;3.90;3.70;;;0.30;99.90;;;;;;5073746;28;20218;-69
2021/12/07 02:37:52;;;;;;;3.85;3.65;;;0.30;99.90;;;;;;5069719;28;20230;-68
2021/12/07 02:40:20;;;;;;;3.67;3.47;;;0.30;99.90;;;;;;5070128;28;20335;-68
2021/12/07 02:42:47;;;;;;;3.78;3.58;;;0.20;99.90;;;;;;5069973;28;20229;-68
2021/12/07 02:45:15;;;;;;;3.80;3.60;;;0.30;99.90;;;;;;5069344;28;20286;-68
2021/12/07 02:47:42;;;;;;;3.50;3.30;;;0.20;99.90;;;;;;5070938;28;20295;-69
2021/12/07 02:50:11;;;;;;;3.72;3.53;;;0.20;99.90;;;;;;5069960;28;20217;-68
2021/12/07 02:52:39;;;;;;;4.13;3.92;;;0.20;99.90;;;;;;5070327;28;20225;-68
2021/12/07 02:55:07;;;;;;;3.45;3.25;;;0.20;99.90;;;;;;5071751;28;20791;-68
2021/12/07 02:57:36;;;;;;;3.60;3.40;;;0.10;99.90;;;;;;5076641;28;20228;-68
2021/12/07 03:00:10;;;;;;;3.42;3.22;;;0.10;99.90;;;;;;5074128;28;20659;-68
2021/12/07 03:02:43;;;;;;;3.10;3.00;;;0.10;99.90;;;;;;5071939;28;20684;-68
2021/12/07 03:05:23;;;;;;;3.47;3.38;;;0.10;99.90;;;;;;5048604;28;20241;-68
2021/12/07 03:08:10;;;;;;;3.80;3.60;;;0.00;99.90;;;;;;5072060;28;20426;-68
2021/12/07 03:27:06;;;;;;;2.92;2.78;;;0.00;99.90;;;;;;5069689;28;20224;-68
2021/12/07 03:29:34;;;;;;;3.08;2.97;;;-0.10;99.90;;;;;;5072036;28;20433;-69
2021/12/07 03:32:01;;;;;;;3.50;3.30;;;-0.10;99.90;;;;;;5075018;28;20225;-68
2021/12/07 03:34:28;;;;;;;3.53;3.33;;;-0.10;99.90;;;;;;5069391;28;20226;-67
2021/12/07 03:36:55;;;;;;;3.97;3.78;;;-0.20;99.90;;;;;;5076344;28;20700;-68
2021/12/07 03:39:22;;;;;;;3.45;3.25;;;-0.20;99.90;;;;;;5077522;28;20225;-68
2021/12/07 03:41:51;;;;;;;3.42;3.25;;;-0.20;99.90;;;;;;5075200;28;20302;-68
2021/12/07 03:44:18;;;;;;;3.55;3.35;;;-0.30;99.90;;;;;;5079227;28;20221;-68
2021/12/07 03:46:47;;;;;;;3.58;3.38;;;-0.30;99.90;;;;;;5078038;28;20229;-68
2021/12/07 03:49:14;;;;;;;3.35;3.25;;;-0.30;99.90;;;;;;5074415;28;20234;-68
2021/12/07 03:51:41;;;;;;;3.92;3.72;;;-0.30;99.90;;;;;;5077257;28;20233;-68
2021/12/07 03:54:08;;;;;;;3.20;3.10;;;-0.30;99.90;;;;;;5078481;28;20222;-68
2021/12/07 03:56:35;;;;;;;3.28;3.17;;;-0.40;99.90;;;;;;5073274;28;20335;-68
2021/12/07 03:59:03;;;;;;;3.70;3.50;;;-0.40;99.90;;;;;;5081842;28;20221;-68
2021/12/07 04:01:30;;;;;;;3.25;3.15;;;-0.40;99.90;;;;;;5082187;28;20282;-68
2021/12/07 04:04:01;;;;;;;3.70;3.50;;;-0.40;99.90;;;;;;5080497;28;20569;-68
2021/12/07 04:06:29;;;;;;;3.50;3.30;;;-0.50;99.90;;;;;;5078849;28;20236;-68
2021/12/07 04:08:56;;;;;;;3.80;3.60;;;-0.50;99.90;;;;;;5076838;28;20631;-69
2021/12/07 04:11:23;;;;;;;3.40;3.20;;;-0.40;99.90;;;;;;5078661;28;20304;-68
2021/12/07 04:13:50;;;;;;;3.28;3.17;;;-0.50;99.90;;;;;;5078745;28;20225;-71
2021/12/07 04:16:20;;;;;;;3.75;3.55;;;-0.50;99.90;;;;;;5081491;28;20286;-68
2021/12/07 04:18:47;;;;;;;3.67;3.47;;;-0.50;99.90;;;;;;5082220;28;20229;-68
2021/12/07 04:21:16;;;;;;;3.70;3.60;;;-0.50;99.90;;;;;;5081295;28;20221;-68
2021/12/07 04:23:43;;;;;;;3.38;3.17;;;-0.50;99.90;;;;;;5076972;28;20274;-68
2021/12/07 04:26:13;;;;;;;3.35;3.25;;;-0.50;99.90;;;;;;5079187;28;20237;-68
2021/12/07 04:28:41;;;;;;;3.63;3.42;;;-0.50;99.90;;;;;;5077225;28;20761;-68
2021/12/07 04:31:09;;;;;;;3.50;3.17;;;-0.60;99.90;;;;;;5076663;28;20226;-68
2021/12/07 04:33:37;;;;;;;3.92;3.72;;;-0.60;99.90;;;;;;5076680;28;20222;-69
2021/12/07 04:36:05;;;;;;;3.50;3.30;;;-0.60;99.90;;;;;;5078498;28;20272;-68
2021/12/07 04:38:33;;;;;;;3.50;3.40;;;-0.60;99.90;;;;;;5078576;28;20724;-68
2021/12/07 04:41:01;;;;;;;3.58;3.38;;;-0.60;99.90;;;;;;5082120;28;20229;-68
2021/12/07 04:43:28;;;;;;;4.10;3.90;;;-0.60;99.90;;;;;;5078177;28;20267;-69
2021/12/07 04:46:05;;;;;;;3.72;3.53;;;-0.60;99.90;;;;;;5079576;28;20245;-68
2021/12/07 04:59:34;;;;;;;3.72;3.58;;;-0.80;99.90;;;;;;5074919;28;20286;-68
2021/12/07 05:02:01;;;;;;;3.80;3.60;;;-0.70;99.90;;;;;;5078281;28;20221;-68
2021/12/07 05:04:32;;;;;;;3.92;3.72;;;-0.70;99.90;;;;;;5077207;28;20278;-68
2021/12/07 05:07:06;;;;;;;3.90;3.70;;;-0.70;99.90;;;;;;5074540;28;20225;-68
2021/12/07 05:10:03;;;;;;;4.32;3.90;;;-0.70;99.90;;;;;;5075116;28;20490;-68
2021/12/07 05:12:32;;;;;;;4.15;3.95;;;-0.70;99.90;;;;;;5079153;28;20233;-69
2021/12/07 05:15:13;;;;;;;4.10;3.90;;;-0.80;99.90;;;;;;5076485;28;20311;-69
2021/12/07 05:39:58;;;;;;;3.75;3.55;;;-1.00;99.90;;;;;;5070496;28;20232;-68
2021/12/07 05:42:27;;;;;;;3.97;3.78;;;-1.00;99.90;;;;;;5079335;28;20605;-69
2021/12/07 05:44:55;;;;;;;4.00;3.80;;;-1.10;99.90;;;;;;5078726;28;20241;-69
2021/12/07 05:47:23;;;;;;;3.95;3.75;;;-1.10;99.90;;;;;;5080781;28;20290;-69
2021/12/07 05:49:50;;;;;;;4.25;4.05;;;-1.00;99.90;;;;;;5080308;28;20320;-68
2021/12/07 05:52:17;;;;;;;3.95;3.75;;;-1.10;99.90;;;;;;5076144;28;20224;-68
2021/12/07 05:54:44;;;;;;;3.95;3.75;;;-1.10;99.90;;;;;;5075924;28;20663;-68
2021/12/07 05:57:11;;;;;;;3.72;3.53;;;-1.10;99.90;;;;;;5078946;28;20278;-68
2021/12/07 05:59:39;;;;;;;4.35;4.10;;;-1.10;99.90;;;;;;5079338;28;20217;-69
2021/12/07 06:02:07;;;;;;;4.25;3.95;;;-1.10;99.90;;;;;;5077403;28;20213;-68
2021/12/07 06:04:34;;;;;;;4.13;3.92;;;-1.20;99.90;;;;;;5076249;28;20275;-68
2021/12/07 06:07:01;;;;;;;3.72;3.53;;;-1.20;99.90;;;;;;5080034;28;20271;-69
2021/12/07 06:09:28;;;;;;;3.88;3.67;;;-1.10;99.90;;;;;;5076372;28;20229;-68
2021/12/07 06:11:55;;;;;;;4.38;4.15;;;-1.20;99.90;;;;;;5073304;28;20226;-68
2021/12/07 06:14:29;;;;;;;4.40;4.10;;;-1.20;99.90;;;;;;5082027;28;20644;-68
2021/12/07 06:16:58;;;;;;;3.70;3.50;;;-1.20;99.90;;;;;;5076680;28;20875;-68
2021/12/07 06:19:25;;;;;;;3.97;3.78;;;-1.20;99.90;;;;;;5072628;28;20278;-68
2021/12/07 06:21:52;;;;;;;3.95;3.65;;;-1.20;99.90;;;;;;5073728;28;20234;-69
2021/12/07 06:24:19;;;;;;;3.58;3.38;;;-1.10;99.90;;;;;;5077606;28;20229;-68
2021/12/07 06:26:47;;;;;;;3.97;3.67;;;-1.10;99.90;;;;;;5076260;28;22289;-68
2021/12/07 06:29:14;;;;;;;3.67;3.58;;;-1.10;99.90;;;;;;5078553;28;20271;-68
2021/12/07 06:31:41;;;;;;;3.65;3.45;;;-1.10;99.90;;;;;;5078690;28;20233;-68
2021/12/07 06:34:10;;;;;;;4.10;3.90;;;-1.10;99.90;;;;;;5080441;28;20221;-68
2021/12/07 06:36:38;;;;;;;3.78;3.58;;;-1.10;99.90;;;;;;5079341;28;20244;-68
2021/12/07 06:39:06;;;;;;;3.95;3.63;;;-1.10;99.90;;;;;;5121157;22;20226;-75
2021/12/07 06:41:33;;;;;;;4.20;4.00;;;-1.10;99.90;;;;;;5095542;28;20221;-75
2021/12/07 06:44:00;;;;;;;4.10;3.90;;;-1.10;99.90;;;;;;5097688;28;20238;-75
2021/12/07 06:46:27;;;;;;;3.90;3.70;;;-1.20;99.90;;;;;;5088072;28;20233;-75
2021/12/07 06:48:54;;;;;;;4.20;4.00;;;-1.20;99.90;;;;;;5088748;28;20225;-77
2021/12/07 06:51:23;;;;;;;4.05;3.75;;;-1.20;99.90;;;;;;5084674;28;20242;-76
2021/12/07 06:53:50;;;;;;;3.30;3.17;;;-1.30;99.90;;;;;;5090892;28;20320;-74
2021/12/07 06:56:17;;;;;;;3.85;3.65;;;-1.30;99.90;;;;;;5083370;28;20944;-76
2021/12/07 06:58:44;;;;;;;3.83;3.63;;;-1.30;99.90;;;;;;5087703;28;20233;-75
2021/12/07 07:01:11;;;;;;;4.30;4.10;;;-1.30;99.90;;;;;;5079249;28;20729;-76
2021/12/07 07:03:39;;;;;;;3.97;3.78;;;-1.30;99.90;;;;;;5093111;28;20729;-76
2021/12/07 07:06:06;;;;;;;3.83;3.63;;;-1.30;99.90;;;;;;5083032;28;20328;-76
2021/12/07 07:08:36;;;;;;;4.03;3.83;;;-1.30;99.90;;;;;;5087798;28;20664;-76
2021/12/07 07:11:04;;;;;;;4.03;3.72;;;-1.30;99.90;;;;;;5089985;28;20226;-76
2021/12/07 07:13:31;;;;;;;3.85;3.65;;;-1.30;99.90;;;;;;5082947;28;20300;-76
2021/12/07 07:15:58;;;;;;;3.72;3.53;;;-1.30;99.90;;;;;;5087899;28;20278;-76
2021/12/07 07:18:25;;;;;;;3.40;3.30;;;-1.20;99.90;;;;;;5086860;28;20437;-77
2021/12/07 07:20:54;;;;;;;3.83;3.63;;;-1.20;99.90;;;;;;5082672;28;20218;-76
2021/12/07 07:23:22;;;;;;;4.32;4.03;;;-1.20;99.90;;;;;;5090764;28;20701;-76
2021/12/07 07:25:50;;;;;;;4.35;4.05;;;-1.10;99.90;;;;;;5083289;28;20277;-76
2021/12/07 07:28:17;;;;;;;4.07;3.88;;;-1.10;99.90;;;;;;5089433;28;20236;-76
2021/12/07 07:30:44;;;;;;;3.78;3.58;;;-1.10;99.90;;;;;;5075690;28;20279;-76
2021/12/07 07:33:12;;;;;;;4.13;3.90;;;-1.10;99.90;;;;;;5083275;28;20240;-77
2021/12/07 07:35:39;;;;;;;4.05;3.85;;;-1.00;99.90;;;;;;5086326;28;20233;-77
2021/12/07 07:38:06;;;;;;;4.15;3.95;;;-1.00;99.90;;;;;;5089178;28;20236;-76
2021/12/07 07:40:33;;;;;;;4.10;3.90;;;-0.90;99.90;;;;;;5080948;28;20226;-74
2021/12/07 07:43:01;;;;;;;3.65;3.45;;;-0.70;99.90;;;;;;5090075;28;20237;-77
2021/12/07 07:45:29;;;;;;;3.75;3.55;;;-0.60;99.90;;;;;;5082318;28;20237;-77
2021/12/07 07:47:56;;;;;;;3.55;3.35;;;-0.60;99.90;;;;;;5087423;28;20217;-77
2021/12/07 07:50:24;;;;;;;4.05;3.80;;;-0.70;99.90;;;;;;5083563;28;20260;-76
2021/12/07 07:52:51;;;;;;;4.57;4.30;;;-0.60;99.90;;;;;;5079156;28;20237;-74
2021/12/07 07:55:18;;;;;;;4.45;4.05;;;-0.40;99.90;;;;;;5086273;28;20707;-74
2021/12/07 07:57:45;;;;;;;4.80;4.40;;;-0.50;99.90;;;;;;5085320;28;20252;-77
2021/12/07 08:00:17;;;;;;;4.65;4.35;;;-0.60;99.90;;;;;;5077427;28;20647;-74
2021/12/07 08:02:44;;;;;;;4.38;4.07;;;-0.70;99.90;;;;;;5070079;28;20841;-74
2021/12/07 08:05:13;;;;;;;4.40;4.20;;;-0.70;99.90;;;;;;5073636;28;20236;-75
2021/12/07 08:07:40;;;;;;;4.70;4.40;;;-0.70;99.90;;;;;;5073604;28;20224;-77
2021/12/07 08:10:09;;;;;;;4.43;4.13;;;-0.70;99.90;;;;;;5077325;28;20230;-75
2021/12/07 08:12:37;;;;;;;4.35;4.05;;;-0.10;99.90;;;;;;5075666;28;20702;-75
2021/12/07 08:15:05;;;;;;;4.70;4.40;;;0.80;99.90;;;;;;5076805;28;20540;-75
2021/12/07 08:17:34;;;;;;;4.45;4.15;;;1.50;99.90;;;;;;5072581;28;21010;-75
2021/12/07 08:20:02;;;;;;;4.38;4.07;;;2.20;99.90;;;;;;5074642;28;20256;-75
2021/12/07 08:22:30;;;;;;;4.18;3.88;;;2.90;99.90;;;;;;5070831;28;20248;-73
2021/12/07 08:24:58;;;;;;;5.00;4.70;;;3.70;99.90;;;;;;5079485;28;20225;-73
2021/12/07 08:27:26;;;;;;;4.63;4.32;;;4.10;99.90;;;;;;5086829;28;20205;-78
2021/12/07 08:29:53;;;;;;;4.63;4.22;;;4.40;99.90;;;;;;5078836;28;20232;-76
2021/12/07 08:32:20;;;;;;;4.45;4.10;;;4.70;99.90;;;;;;5078900;28;20310;-75
2021/12/07 08:34:49;;;;;;;5.82;5.28;;;5.20;99.90;;;;;;5079381;28;20679;-73
2021/12/07 08:37:16;;;;;;;4.43;4.07;;;5.60;99.90;;;;;;5054882;28;20277;-75
2021/12/07 08:39:43;;;;;;;4.55;4.15;;;5.80;99.90;;;;;;5077222;28;20226;-74
2021/12/07 08:42:11;;;;;;;4.15;3.85;;;5.90;99.90;;;;;;5080579;28;20297;-75
2021/12/07 08:44:38;;;;;;;4.20;3.88;;;6.20;99.90;;;;;;5077231;28;20229;-76
2021/12/07 08:47:05;;;;;;;4.63;3.92;;;6.30;99.90;;;;;;5075279;28;20226;-74
2021/12/07 08:49:32;;;;;;;3.92;3.63;;;6.70;99.90;;;;;;5077207;28;20550;-74
2021/12/07 08:52:01;;;;;;;5.20;4.43;;;7.00;99.90;;;;;;5077843;28;20710;-75
2021/12/07 08:59:35;;;;;;;4.75;4.25;;;7.40;99.90;;;;;;5076561;28;20338;-75
2021/12/07 09:00:01;;;;;;;5.03;4.53;;;7.80;99.90;;;;;;5075583;28;20264;-74
2021/12/07 09:02:29;;;;;;;5.10;4.60;;;7.90;99.90;;;;;;5079027;28;20270;-76
2021/12/07 09:04:56;;;;;;;4.10;3.72;;;8.50;99.90;;;;;;5079318;28;20224;-73
2021/12/07 09:07:25;;;;;;;4.60;4.13;;;9.50;99.90;;;;;;5073095;28;20458;-75
2021/12/07 09:09:52;;;;;;;4.28;3.88;;;10.80;99.90;;;;;;5077544;28;20767;-76
2021/12/07 09:12:21;;;;;;;4.07;3.72;;;12.20;99.90;;;;;;5080133;28;20285;-75
2021/12/07 09:14:52;;;;;;;4.05;3.75;;;13.60;96.30;;;;;;5084283;28;20218;-75
2021/12/07 09:17:19;;;;;;;4.63;3.47;;;15.00;92.20;;;;;;5074150;28;20240;-76
2021/12/07 09:19:46;;;;;;;5.30;3.92;;;16.10;88.90;;;;;;5081106;28;20222;-76
2021/12/07 09:22:13;;;;;;;5.18;3.13;;;16.90;82.30;;;;;;5077482;28;20826;-75
2021/12/07 09:24:42;;;;;;;3.42;3.13;;;17.30;75.30;;;;;;5076147;28;20232;-77
2021/12/07 09:27:09;;;;;;;3.28;2.97;;;17.20;73.00;;;;;;5077060;28;20212;-75
2021/12/07 09:29:37;;;;;;;3.63;2.88;;;17.30;71.00;;;;;;5071397;28;20652;-73
2021/12/07 09:32:04;;;;;;;3.08;2.88;;;17.30;69.40;;;;;;5075253;28;20221;-75
2021/12/07 09:34:32;;;;;;;3.70;3.40;;;17.30;70.10;;;;;;5077228;28;20229;-73
2021/12/07 09:36:59;;;;;;;3.60;3.30;;;17.20;68.40;;;;;;5079174;28;20270;-72
2021/12/07 09:39:27;;;;;;;3.13;2.90;;;17.40;70.40;;;;;;5077044;28;20226;-73
2021/12/07 09:41:56;;;;;;;3.50;3.20;;;17.40;69.20;;;;;;5075531;28;20563;-74
2021/12/07 09:44:23;;;;;;;3.88;3.45;;;17.40;66.30;;;;;;5075004;28;20253;-75
2021/12/07 09:46:51;;;;;;;4.38;3.17;;;16.90;67.90;;;;;;5083480;28;20348;-73
2021/12/07 09:49:18;;;;;;;4.35;3.60;;;16.60;69.00;;;;;;5075944;28;20249;-71
2021/12/07 09:51:45;;;;;;;3.38;3.13;;;15.70;70.50;;;;;;5079359;28;20228;-74
2021/12/07 09:54:13;;;;;;;4.15;3.75;;;14.20;73.70;;;;;;5073041;28;20237;-74
2021/12/07 09:56:40;;;;;;;3.58;3.15;;;12.70;77.40;;;;;;5078148;28;20430;-72
2021/12/07 09:59:11;;;;;;;4.28;3.80;;;11.50;82.30;;;;;;5080548;28;20221;-70
2021/12/07 10:01:42;;;;;;;6.72;3.72;;;10.40;85.90;;;;;;5080574;28;20254;-73
2021/12/07 10:04:10;;;;;;;3.60;3.30;;;9.50;89.60;;;;;;5078827;28;20257;-70
2021/12/07 10:06:37;;;;;;;4.35;3.72;;;8.90;91.20;;;;;;5075736;28;20362;-73
2021/12/07 10:09:05;;;;;;;3.60;3.33;;;8.50;92.30;;;;;;5078811;28;20465;-71
2021/12/07 10:11:33;;;;;;;5.03;3.33;;;8.30;92.90;;;;;;5077072;28;20291;-72
2021/12/07 10:14:01;;;;;;;5.40;3.60;;;8.30;92.90;;;;;;5092589;28;20224;-71
2021/12/07 10:16:29;;;;;;;3.60;3.40;;;8.10;94.10;;;;;;5076269;28;20292;-73
2021/12/07 10:18:56;;;;;;;4.03;3.60;;;7.90;92.90;;;;;;5075335;28;20770;-73
2021/12/07 10:21:26;;;;;;;4.03;3.13;;;7.60;93.50;;;;;;5073676;28;20279;-73
2021/12/07 10:23:55;;;;;;;3.60;3.33;;;7.80;94.00;;;;;;5066639;28;20221;-73
2021/12/07 10:26:25;;;;;;;3.78;3.33;;;7.90;93.80;;;;;;5068405;28;20420;-73
2021/12/07 10:28:54;;;;;;;3.85;3.45;;;8.00;94.30;;;;;;5080762;28;20240;-73
2021/12/07 10:31:30;;;;;;;4.40;3.97;;;8.10;94.30;;;;;;5064942;28;20240;-74
2021/12/07 10:34:00;;;;;;;4.95;3.50;;;8.30;94.20;;;;;;5077237;28;20282;-70
2021/12/07 10:36:31;;;;;;;4.00;3.70;;;8.40;94.40;;;;;;5073712;28;20229;-73
2021/12/07 10:39:11;;;;;;;3.92;3.58;;;8.40;94.40;;;;;;5075522;28;20339;-72
2021/12/07 10:41:40;;;;;;;3.80;3.50;;;8.50;94.90;;;;;;5069622;28;20699;-72
2021/12/07 10:44:09;;;;;;;4.35;3.15;;;8.50;94.40;;;;;;5074471;28;20229;-73
2021/12/07 10:46:48;;;;;;;4.03;3.60;;;8.50;94.80;;;;;;5070887;28;20224;-71
2021/12/07 10:49:32;;;;;;;3.90;3.60;;;8.60;94.80;;;;;;5074416;28;20225;-71
2021/12/07 10:52:29;;;;;;;3.75;3.35;;;8.80;94.70;;;;;;5079606;28;20247;-72
2021/12/07 10:55:02;;;;;;;3.45;3.17;;;8.80;93.50;;;;;;5076208;28;20288;-72
2021/12/07 10:57:32;;;;;;;2.95;2.75;;;8.60;94.30;;;;;;5075561;28;20220;-74
2021/12/07 11:00:10;;;;;;;3.35;3.00;;;8.40;94.30;;;;;;5070287;28;20243;-73
2021/12/07 11:02:41;;;;;;;3.33;3.08;;;8.40;94.70;;;;;;5068926;28;20244;-71
2021/12/07 11:05:11;;;;;;;3.63;3.33;;;8.40;95.20;;;;;;5078231;28;20313;-75
2021/12/07 11:07:39;;;;;;;3.20;2.72;;;8.70;95.80;;;;;;5087343;28;20707;-73
2021/12/07 11:10:14;;;;;;;3.63;3.33;;;9.10;95.20;;;;;;5075823;28;20232;-74
2021/12/07 11:12:48;;;;;;;3.65;3.35;;;9.30;94.70;;;;;;5081739;28;20332;-73
2021/12/07 11:15:25;;;;;;;3.55;3.25;;;9.20;94.40;;;;;;5076862;28;20231;-74
2021/12/07 11:17:56;;;;;;;3.60;3.30;;;9.20;94.30;;;;;;5073402;28;20658;-72
2021/12/07 11:20:24;;;;;;;6.10;3.50;;;9.40;93.70;;;;;;5070834;28;20628;-72
2021/12/07 11:22:55;;;;;;;3.80;3.50;;;9.40;93.20;;;;;;5077399;28;20237;-72
2021/12/07 11:31:23;;;;;;;3.38;3.08;;;9.40;94.30;;;;;;5074746;28;20267;-72
2021/12/07 11:33:53;;;;;;;3.42;3.22;;;9.40;93.70;;;;;;5068237;28;20233;-71
2021/12/07 11:36:26;;;;;;;3.35;3.05;;;9.50;93.90;;;;;;5076798;28;20218;-73
2021/12/07 11:38:54;;;;;;;3.05;2.85;;;9.30;93.40;;;;;;5079115;28;20236;-71
2021/12/07 11:41:27;;;;;;;4.55;3.53;;;9.20;93.60;;;;;;5002273;28;20232;-73
2021/12/07 11:43:58;;;;;;;4.03;3.63;;;9.10;93.20;;;;;;5062368;28;20222;-73
2021/12/07 11:46:27;;;;;;;3.50;3.20;;;8.90;93.50;;;;;;5065505;28;20221;-71
2021/12/07 11:49:11;;;;;;;3.67;3.38;;;8.70;93.80;;;;;;5069553;28;20226;-71
2021/12/07 11:51:39;;;;;;;4.75;3.63;;;9.00;94.30;;;;;;5075696;28;20513;-72
2021/12/07 11:54:07;;;;;;;3.53;3.22;;;9.10;94.20;;;;;;5023914;28;20221;-72
2021/12/07 11:56:35;;;;;;;3.63;3.33;;;9.20;93.60;;;;;;5073004;28;20217;-73
2021/12/07 11:59:03;;;;;;;3.63;3.17;;;9.20;93.60;;;;;;5076415;28;20244;-72
2021/12/07 12:01:30;;;;;;;3.45;3.22;;;9.20;93.80;;;;;;5071116;28;20217;-71
2021/12/07 12:03:57;;;;;;;2.92;2.70;;;9.20;93.60;;;;;;5068454;28;20225;-73
2021/12/07 12:06:26;;;;;;;2.83;2.63;;;9.00;93.10;;;;;;5068299;28;20209;-74
2021/12/07 12:08:54;;;;;;;3.35;2.70;;;8.90;94.20;;;;;;5061259;28;20313;-73
2021/12/07 12:11:29;;;;;;;3.17;2.92;;;8.90;94.30;;;;;;5068961;28;20224;-72
2021/12/07 12:14:06;;;;;;;3.40;3.10;;;9.10;94.40;;;;;;5064960;28;20708;-73
2021/12/07 12:16:43;;;;;;;4.13;3.20;;;9.20;94.50;;;;;;5072939;28;20310;-71
2021/12/07 12:19:23;;;;;;;3.38;3.17;;;9.20;94.00;;;;;;5066262;28;20304;-71
2021/12/07 12:21:56;;;;;;;3.30;3.10;;;9.00;93.50;;;;;;5066156;28;20229;-71
2021/12/07 12:24:32;;;;;;;5.28;3.47;;;8.80;93.70;;;;;;5065655;28;20546;-72
2021/12/07 12:27:09;;;;;;;2.88;2.70;;;8.70;94.50;;;;;;5076275;28;20229;-72
2021/12/07 12:29:39;;;;;;;3.30;3.00;;;8.60;94.50;;;;;;5064659;28;20229;-70
2021/12/07 12:32:08;;;;;;;3.38;3.08;;;8.70;94.30;;;;;;5070858;28;20762;-70
2021/12/07 12:34:37;;;;;;;7.68;4.35;;;8.80;94.30;;;;;;5074659;28;20225;-72
2021/12/07 12:37:10;;;;;;;3.45;3.15;;;8.90;94.40;;;;;;5067863;28;20274;-72
2021/12/07 12:39:47;;;;;;;3.78;3.47;;;9.00;94.20;;;;;;5118334;22;20225;-68
2021/12/07 12:42:23;;;;;;;3.55;3.25;;;8.90;93.70;;;;;;5061701;28;20618;-69
2021/12/07 12:44:58;;;;;;;4.15;2.90;;;9.00;94.00;;;;;;5065593;28;20874;-68
2021/12/07 12:47:27;;;;;;;3.38;3.08;;;8.90;94.40;;;;;;5069630;28;20219;-68
2021/12/07 12:49:55;;;;;;;3.47;3.17;;;8.70;94.00;;;;;;5072619;28;20278;-68
2021/12/07 12:52:39;;;;;;;3.15;2.85;;;8.70;94.70;;;;;;5068524;28;20221;-73
2021/12/07 12:55:07;;;;;;;3.20;3.00;;;8.80;95.20;;;;;;5067814;28;20307;-69
2021/12/07 12:57:49;;;;;;;3.28;3.05;;;8.90;95.10;;;;;;5063858;28;20232;-69
2021/12/07 13:00:16;;;;;;;3.58;2.60;;;8.80;94.70;;;;;;5059086;28;20769;-70
2021/12/07 13:02:50;;;;;;;3.42;3.13;;;8.70;95.00;;;;;;5069278;28;20287;-71
2021/12/07 13:05:18;;;;;;;3.20;2.90;;;8.90;95.30;;;;;;5072567;28;20684;-69
2021/12/07 13:07:47;;;;;;;3.85;3.45;;;8.90;94.20;;;;;;5069885;28;20237;-70
2021/12/07 13:10:15;;;;;;;3.25;2.95;;;8.70;93.80;;;;;;5077426;28;20260;-72
2021/12/07 13:12:43;;;;;;;3.58;3.10;;;8.40;94.00;;;;;;5075376;28;20229;-69
2021/12/07 13:15:12;;;;;;;3.92;3.03;;;8.20;94.80;;;;;;5069681;28;20626;-69
2021/12/07 13:17:42;;;;;;;3.00;2.80;;;8.20;95.00;;;;;;5072959;28;20233;-67
2021/12/07 13:20:30;;;;;;;3.17;2.90;;;8.40;95.50;;;;;;5069178;28;21023;-67
2021/12/07 13:23:06;;;;;;;3.08;2.75;;;8.50;94.70;;;;;;5072237;28;20267;-67
2021/12/07 13:25:36;;;;;;;3.55;3.20;;;8.60;95.10;;;;;;5066516;28;20218;-67
2021/12/07 13:28:20;;;;;;;4.18;3.78;;;8.50;94.70;;;;;;5070762;28;20716;-68
2021/12/07 13:31:00;;;;;;;4.68;3.30;;;8.40;94.90;;;;;;5074929;28;20217;-69
2021/12/07 13:33:38;;;;;;;3.38;3.08;;;8.40;95.10;;;;;;5077264;28;20222;-69
2021/12/07 13:36:50;;;;;;;3.35;3.05;;;8.40;95.30;;;;;;5071220;28;20225;-69
2021/12/07 13:39:47;;;;;;;5.03;3.30;;;8.30;95.70;;;;;;5032895;28;20237;-68
2021/12/07 13:42:28;;;;;;;3.72;3.13;;;8.30;96.10;;;;;;5074225;28;20229;-70
2021/12/07 13:45:01;;;;;;;3.08;2.80;;;8.20;95.60;;;;;;5072483;28;20221;-68
2021/12/07 13:47:32;;;;;;;3.03;2.83;;;8.00;95.90;;;;;;5070533;28;20225;-68
2021/12/07 13:50:02;;;;;;;3.78;3.05;;;7.70;95.90;;;;;;5071449;28;20225;-70
2021/12/07 13:52:32;;;;;;;2.55;2.30;;;7.50;96.20;;;;;;5072368;28;20508;-68
2021/12/07 13:55:02;;;;;;;4.57;3.58;;;7.20;96.50;;;;;;5070601;28;20221;-69
2021/12/07 13:57:32;;;;;;;2.90;2.70;;;7.00;97.00;;;;;;5046178;28;20217;-68
2021/12/07 14:00:02;;;;;;;3.35;3.05;;;6.70;97.10;;;;;;5065757;28;20222;-68
2021/12/07 14:02:33;;;;;;;3.40;3.10;;;6.50;98.40;;;;;;5067891;28;20216;-70
2021/12/07 14:05:03;;;;;;;4.20;2.97;;;6.50;98.90;;;;;;5071224;28;20233;-70
2021/12/07 14:07:32;;;;;;;3.45;3.17;;;6.30;99.20;;;;;;5071243;28;20217;-70
2021/12/07 14:10:12;;;;;;;4.82;3.60;;;6.20;99.50;;;;;;5066424;28;20758;-69
2021/12/07 14:12:39;;;;;;;6.60;6.00;;;6.10;99.70;;;;;;5067671;28;20225;-73
2021/12/07 14:15:09;;;;;;;9.48;5.93;;;6.00;99.90;;;;;;5070904;28;20748;-72
2021/12/07 14:17:45;;;;;;;4.47;4.07;;;5.80;99.90;;;;;;5070701;28;20600;-71
2021/12/07 14:20:13;;;;;;;4.70;4.25;;;5.70;99.90;;;;;;5010390;28;20261;-71
2021/12/07 14:22:46;;;;;;;4.82;4.35;;;5.50;99.90;;;;;;5060336;28;20868;-71
2021/12/07 14:25:18;;;;;;;4.25;3.85;;;5.40;99.90;;;;;;5074607;28;20688;-72
2021/12/07 14:27:45;;;;;;;7.68;6.93;;;5.30;99.90;;;;;;5073480;28;20696;-72
2021/12/07 14:30:13;;;;;;;7.60;6.90;;;5.30;99.90;;;;;;5070500;28;20225;-71
2021/12/07 14:32:41;;;;;;;6.28;5.75;;;5.20;99.90;;;;;;5074190;28;20267;-71